Time;durP1;ratioP1;P1;durP2;ratioP2;P2;SDS_P1;SDS_P2;PMS_P1;PMS_P2;Temp;Humidity;BMP_temperature;BMP_pressure;BME280_temperature;BME280_humidity;BME280_pressure;Samples;Min_cycle;Max_cycle;Signal;HPM_P1;HPM_P2
2022/04/24 00:00:55;;;;;;;6.32;1.40;;;31.40;15.20;;;;;;5068891;28;20069;-67
2022/04/24 00:03:22;;;;;;;3.50;1.20;;;31.30;15.70;;;;;;5068880;28;20073;-70
2022/04/24 00:05:48;;;;;;;3.10;1.40;;;31.30;15.70;;;;;;5070364;28;20042;-71
2022/04/24 00:08:15;;;;;;;3.58;0.98;;;31.40;15.90;;;;;;5072140;28;20066;-67
2022/04/24 00:10:42;;;;;;;3.08;1.45;;;31.30;16.10;;;;;;5069460;28;20104;-68
2022/04/24 00:13:08;;;;;;;3.17;1.42;;;31.40;15.80;;;;;;5068788;28;20571;-68
2022/04/24 00:15:35;;;;;;;3.50;1.55;;;31.40;15.60;;;;;;5069996;28;20083;-66
2022/04/24 00:18:01;;;;;;;3.45;1.38;;;31.40;16.20;;;;;;5070423;28;20052;-66
2022/04/24 00:20:27;;;;;;;2.10;1.70;;;31.30;15.70;;;;;;5069862;28;20060;-67
2022/04/24 00:23:03;;;;;;;4.00;1.88;;;31.10;15.80;;;;;;5083375;28;20048;-68
2022/04/24 00:25:29;;;;;;;3.88;1.65;;;30.90;16.10;;;;;;5068187;28;20041;-68
2022/04/24 00:27:56;;;;;;;2.55;1.10;;;30.90;15.90;;;;;;5071674;28;20092;-69
2022/04/24 00:30:22;;;;;;;3.83;1.40;;;30.90;15.70;;;;;;5085493;28;20057;-67
2022/04/24 00:32:49;;;;;;;3.00;1.35;;;30.80;15.70;;;;;;5085689;28;20150;-68
2022/04/24 00:35:15;;;;;;;4.85;0.90;;;30.60;15.70;;;;;;5068376;28;20172;-68
2022/04/24 00:37:42;;;;;;;4.30;1.10;;;30.50;15.70;;;;;;5070059;28;20051;-67
2022/04/24 00:40:09;;;;;;;3.42;1.00;;;30.40;16.00;;;;;;5069337;28;20465;-67
2022/04/24 00:42:36;;;;;;;5.65;1.00;;;30.50;16.00;;;;;;5067836;28;20046;-67
2022/04/24 00:45:02;;;;;;;4.57;1.20;;;30.50;16.00;;;;;;5051358;28;20042;-64
2022/04/24 00:47:29;;;;;;;6.35;1.20;;;30.40;16.30;;;;;;5073531;28;20048;-66
2022/04/24 00:49:58;;;;;;;5.50;1.13;;;30.40;16.10;;;;;;5067526;28;20051;-69
2022/04/24 00:52:25;;;;;;;3.13;1.10;;;30.20;16.10;;;;;;5068546;28;20053;-68
2022/04/24 00:54:52;;;;;;;3.35;1.25;;;30.10;16.20;;;;;;5067572;28;20056;-66
2022/04/24 00:57:18;;;;;;;4.32;0.93;;;30.00;16.30;;;;;;5069019;28;20068;-69
2022/04/24 00:59:45;;;;;;;2.85;0.70;;;30.00;16.40;;;;;;5067693;28;20135;-67
2022/04/24 01:02:11;;;;;;;1.95;0.80;;;29.90;15.80;;;;;;5085306;28;20096;-68
2022/04/24 01:04:39;;;;;;;4.63;0.82;;;29.90;15.80;;;;;;5069470;28;20526;-68
2022/04/24 01:07:06;;;;;;;3.63;0.75;;;29.80;16.00;;;;;;5068549;28;20499;-66
2022/04/24 01:09:34;;;;;;;1.70;0.68;;;29.70;16.00;;;;;;5086924;28;20765;-67
2022/04/24 01:12:01;;;;;;;1.77;0.73;;;29.60;16.40;;;;;;5072793;28;20141;-69
2022/04/24 01:14:30;;;;;;;4.03;1.02;;;29.50;16.30;;;;;;5071994;28;20102;-68
2022/04/24 01:16:57;;;;;;;3.67;0.70;;;29.50;16.20;;;;;;5055696;28;20065;-65
2022/04/24 01:19:25;;;;;;;4.10;0.70;;;29.40;16.50;;;;;;5071424;28;20439;-67
2022/04/24 01:21:55;;;;;;;5.47;1.30;;;29.20;16.60;;;;;;5072981;28;20054;-68
2022/04/24 01:24:24;;;;;;;4.90;1.10;;;29.30;16.70;;;;;;5037420;28;20060;-68
2022/04/24 01:26:50;;;;;;;3.90;0.80;;;29.10;17.10;;;;;;5071815;28;20044;-66
2022/04/24 01:29:18;;;;;;;6.07;0.80;;;29.00;16.50;;;;;;5072227;28;20081;-68
2022/04/24 01:31:47;;;;;;;4.68;0.75;;;28.90;16.50;;;;;;5073678;28;20057;-67
2022/04/24 01:34:14;;;;;;;2.03;0.77;;;28.80;16.70;;;;;;5055979;28;20071;-66
2022/04/24 01:36:41;;;;;;;3.47;1.08;;;28.70;16.80;;;;;;5071858;28;20141;-67
2022/04/24 01:39:08;;;;;;;7.22;1.38;;;28.60;17.00;;;;;;5072141;28;20052;-67
2022/04/24 01:41:38;;;;;;;9.30;6.43;;;28.60;17.20;;;;;;5090170;28;20050;-68
2022/04/24 01:44:05;;;;;;;3.88;1.00;;;28.50;17.00;;;;;;5071541;28;20058;-67
2022/04/24 01:46:31;;;;;;;6.88;0.93;;;28.30;17.00;;;;;;5072919;28;20081;-67
2022/04/24 01:48:58;;;;;;;3.72;0.70;;;28.20;17.20;;;;;;5088847;28;20058;-69
2022/04/24 01:51:25;;;;;;;2.47;0.90;;;28.10;17.30;;;;;;5071674;28;20116;-69
2022/04/24 01:53:51;;;;;;;4.00;0.70;;;28.00;17.40;;;;;;5075632;28;20150;-67
2022/04/24 01:56:20;;;;;;;2.90;1.27;;;27.90;17.60;;;;;;5089915;28;20055;-67
2022/04/24 01:58:47;;;;;;;10.52;3.10;;;27.90;17.80;;;;;;5071913;28;20471;-67
2022/04/24 02:01:13;;;;;;;5.32;2.63;;;27.80;18.00;;;;;;5071353;28;20078;-70
2022/04/24 02:03:40;;;;;;;4.65;2.80;;;27.80;17.90;;;;;;5071215;28;20064;-66
2022/04/24 02:06:06;;;;;;;5.90;1.73;;;27.70;18.20;;;;;;5087891;28;20065;-67
2022/04/24 02:08:36;;;;;;;51.55;4.63;;;27.60;18.00;;;;;;5075330;28;20088;-60
2022/04/24 02:11:04;;;;;;;4.70;2.00;;;27.60;18.60;;;;;;5073196;28;20156;-61
2022/04/24 02:13:31;;;;;;;22.75;3.15;;;27.50;18.30;;;;;;5087803;28;20107;-59
2022/04/24 02:15:58;;;;;;;33.85;3.65;;;27.40;18.20;;;;;;5071043;28;20074;-59
2022/04/24 02:18:24;;;;;;;14.50;3.60;;;27.30;18.30;;;;;;5073146;28;20083;-60
2022/04/24 02:20:51;;;;;;;9.57;1.48;;;27.20;18.60;;;;;;5071087;28;20548;-62
2022/04/24 02:23:17;;;;;;;14.00;2.75;;;27.10;18.60;;;;;;5087591;28;20547;-60
2022/04/24 02:25:44;;;;;;;7.47;2.63;;;27.10;18.80;;;;;;5084828;28;20132;-60
2022/04/24 02:28:10;;;;;;;24.00;3.47;;;27.00;18.90;;;;;;5059155;28;20087;-60
2022/04/24 02:30:37;;;;;;;11.63;2.85;;;26.90;19.10;;;;;;5054510;28;20070;-63
2022/04/24 02:33:03;;;;;;;36.83;4.03;;;26.80;19.40;;;;;;5072117;28;20088;-64
2022/04/24 02:35:32;;;;;;;9.30;2.95;;;26.70;19.70;;;;;;5072830;28;20182;-64
2022/04/24 02:37:59;;;;;;;42.25;4.95;;;26.70;19.80;;;;;;5087240;28;20097;-63
2022/04/24 02:40:27;;;;;;;28.83;3.42;;;26.60;20.10;;;;;;5072728;28;20432;-63
2022/04/24 02:42:54;;;;;;;14.02;2.20;;;26.50;20.20;;;;;;5071381;28;20188;-64
2022/04/24 02:45:21;;;;;;;19.33;2.92;;;26.40;20.80;;;;;;5069053;28;20056;-66
2022/04/24 02:47:48;;;;;;;14.60;3.17;;;26.40;20.50;;;;;;5069331;28;20522;-64
2022/04/24 02:50:15;;;;;;;10.98;3.03;;;26.30;20.50;;;;;;5072720;28;20088;-65
2022/04/24 02:52:49;;;;;;;20.02;4.43;;;26.30;21.20;;;;;;5072722;28;20416;-63
2022/04/24 02:55:17;;;;;;;14.15;3.28;;;26.20;20.80;;;;;;5087221;28;20444;-63
2022/04/24 02:57:44;;;;;;;20.35;4.28;;;26.20;20.90;;;;;;5072973;28;20080;-66
2022/04/24 03:00:13;;;;;;;15.00;3.97;;;26.10;21.00;;;;;;5088401;28;20109;-63
2022/04/24 03:02:41;;;;;;;15.65;3.72;;;26.10;21.10;;;;;;5071489;28;20541;-63
2022/04/24 03:05:13;;;;;;;12.05;4.00;;;26.00;21.20;;;;;;5070182;28;20174;-65
2022/04/24 03:07:40;;;;;;;21.33;4.95;;;25.60;34.10;;;;;;5085803;28;20021;-68
2022/04/24 03:10:11;;;;;;;20.48;7.45;;;25.80;30.30;;;;;;5069807;28;20062;-68
2022/04/24 03:12:38;;;;;;;23.30;10.43;;;25.90;24.40;;;;;;5084749;28;20060;-69
2022/04/24 03:15:08;;;;;;;22.27;8.68;;;;;;;;;;5071261;28;20060;-68
2022/04/24 03:17:35;;;;;;;26.60;8.95;;;;;;;;;;5071115;28;20024;-71
2022/04/24 03:20:03;;;;;;;28.45;10.70;;;25.40;22.20;;;;;;5069992;28;20037;-70
2022/04/24 03:22:33;;;;;;;28.15;10.80;;;25.40;22.10;;;;;;5070127;28;20112;-68
2022/04/24 03:25:04;;;;;;;31.52;15.73;;;25.30;22.10;;;;;;5083621;28;20785;-69
2022/04/24 03:27:30;;;;;;;36.25;11.95;;;25.20;22.30;;;;;;5069511;28;20072;-68
2022/04/24 03:29:57;;;;;;;27.75;10.98;;;25.20;22.40;;;;;;5086793;28;20077;-68
2022/04/24 03:32:23;;;;;;;17.42;4.85;;;25.10;26.50;;;;;;5071155;28;20161;-70
2022/04/24 03:34:51;;;;;;;14.25;3.35;;;25.20;26.10;;;;;;5086782;28;20044;-68
2022/04/24 03:37:18;;;;;;;13.00;3.40;;;25.30;22.10;;;;;;5086052;28;20096;-69
2022/04/24 03:39:45;;;;;;;12.18;3.72;;;25.40;22.60;;;;;;5088585;28;20128;-66
2022/04/24 03:42:11;;;;;;;20.33;3.78;;;25.50;22.60;;;;;;5074828;28;20083;-68
2022/04/24 03:44:38;;;;;;;17.65;4.22;;;25.10;27.10;;;;;;5069001;28;20466;-68
2022/04/24 03:47:06;;;;;;;20.88;5.97;;;25.60;22.20;;;;;;5070843;28;20041;-67
2022/04/24 03:49:32;;;;;;;19.92;5.65;;;25.60;22.10;;;;;;5068352;28;20448;-69
2022/04/24 03:51:58;;;;;;;18.08;6.15;;;25.50;22.10;;;;;;5068569;28;20419;-69
2022/04/24 03:54:25;;;;;;;27.65;8.30;;;25.50;22.30;;;;;;5085630;28;20407;-66
2022/04/24 03:56:51;;;;;;;31.67;12.13;;;25.50;22.10;;;;;;5069695;28;20081;-68
2022/04/24 03:59:18;;;;;;;44.65;16.25;;;25.50;22.10;;;;;;5086080;28;20107;-67
2022/04/24 04:01:44;;;;;;;59.85;22.40;;;25.50;22.10;;;;;;5070630;28;20060;-66
2022/04/24 04:04:11;;;;;;;42.30;19.02;;;25.40;22.10;;;;;;5085473;28;20129;-67
2022/04/24 04:06:37;;;;;;;48.42;19.55;;;25.40;22.10;;;;;;5069034;28;20095;-66
2022/04/24 04:09:04;;;;;;;54.42;18.15;;;25.30;22.20;;;;;;5070637;28;20053;-68
2022/04/24 04:11:30;;;;;;;31.08;9.82;;;25.30;22.40;;;;;;5068847;28;20067;-68
2022/04/24 04:13:57;;;;;;;31.13;8.70;;;25.20;22.30;;;;;;5068724;28;20486;-68
2022/04/24 04:16:23;;;;;;;26.48;7.65;;;25.20;22.30;;;;;;5085400;28;20072;-66
2022/04/24 04:18:50;;;;;;;30.35;8.18;;;25.10;22.50;;;;;;5085549;28;20159;-65
2022/04/24 04:21:16;;;;;;;27.02;8.23;;;25.00;22.70;;;;;;5069649;28;20087;-67
2022/04/24 04:23:42;;;;;;;27.10;8.63;;;24.90;22.80;;;;;;5069955;28;20058;-65
2022/04/24 04:26:09;;;;;;;27.92;8.15;;;24.80;22.70;;;;;;5083640;28;20069;-68
2022/04/24 04:28:35;;;;;;;27.83;7.55;;;24.80;22.70;;;;;;5067352;28;20066;-68
2022/04/24 04:31:03;;;;;;;32.90;10.60;;;24.70;22.90;;;;;;5068632;28;20069;-67
2022/04/24 04:33:29;;;;;;;33.60;11.63;;;24.60;22.90;;;;;;5085419;28;20077;-70
2022/04/24 04:35:56;;;;;;;28.15;11.50;;;24.50;23.10;;;;;;5052059;28;20091;-67
2022/04/24 04:38:22;;;;;;;30.73;8.85;;;24.40;22.90;;;;;;5068874;28;20161;-66
2022/04/24 04:40:49;;;;;;;27.40;9.02;;;24.40;22.90;;;;;;5070652;28;20537;-68
2022/04/24 04:43:15;;;;;;;35.25;9.95;;;24.40;22.90;;;;;;5050841;28;20544;-66
2022/04/24 04:45:41;;;;;;;35.85;12.00;;;24.30;22.80;;;;;;5084043;28;20079;-65
2022/04/24 04:48:08;;;;;;;34.55;9.85;;;24.30;23.00;;;;;;5070506;28;20070;-67
2022/04/24 04:50:34;;;;;;;29.02;7.43;;;24.20;22.80;;;;;;5085013;28;20668;-68
2022/04/24 04:53:01;;;;;;;25.25;6.68;;;24.10;22.70;;;;;;5070724;28;20073;-66
2022/04/24 04:55:27;;;;;;;27.33;7.38;;;24.10;22.60;;;;;;5068384;28;20507;-66
2022/04/24 04:57:54;;;;;;;32.22;8.25;;;24.10;22.70;;;;;;5067652;28;20088;-67
2022/04/24 05:00:21;;;;;;;33.92;8.82;;;24.00;23.60;;;;;;5069439;28;20090;-67
2022/04/24 05:02:47;;;;;;;33.75;8.30;;;23.90;23.10;;;;;;5068577;28;20073;-67
2022/04/24 05:05:17;;;;;;;38.42;9.07;;;23.80;23.20;;;;;;5087022;28;20140;-67
2022/04/24 05:07:43;;;;;;;31.02;7.93;;;23.80;23.80;;;;;;5068828;28;20070;-66
2022/04/24 05:10:10;;;;;;;34.42;8.25;;;23.80;23.20;;;;;;5075038;28;20097;-67
2022/04/24 05:12:36;;;;;;;35.38;8.13;;;23.80;23.30;;;;;;5068530;28;20099;-67
2022/04/24 05:15:08;;;;;;;34.65;7.55;;;23.70;23.10;;;;;;5083296;28;20074;-70
2022/04/24 05:17:36;;;;;;;33.13;8.35;;;23.70;23.20;;;;;;5068633;28;20111;-68
2022/04/24 05:20:07;;;;;;;44.65;8.52;;;23.60;23.30;;;;;;5067516;28;20109;-69
2022/04/24 05:22:34;;;;;;;38.15;7.35;;;23.60;23.40;;;;;;5069780;28;20132;-67
2022/04/24 05:25:00;;;;;;;34.05;7.10;;;23.50;23.50;;;;;;5082540;28;20097;-69
2022/04/24 05:27:27;;;;;;;37.83;7.85;;;23.50;23.50;;;;;;5081773;28;20408;-70
2022/04/24 05:29:54;;;;;;;28.42;7.20;;;23.50;23.50;;;;;;5081610;28;20102;-66
2022/04/24 05:32:20;;;;;;;25.58;6.82;;;23.40;23.50;;;;;;5067251;28;20096;-67
2022/04/24 05:34:47;;;;;;;31.35;8.55;;;23.30;23.50;;;;;;5067313;28;20201;-65
2022/04/24 05:37:13;;;;;;;32.33;8.75;;;23.30;23.40;;;;;;5068239;28;20518;-65
2022/04/24 05:39:39;;;;;;;30.42;9.80;;;23.30;23.30;;;;;;5083830;28;20174;-66
2022/04/24 05:42:06;;;;;;;41.17;11.57;;;23.20;23.30;;;;;;5084156;28;20080;-66
2022/04/24 05:44:32;;;;;;;41.42;11.50;;;23.20;23.40;;;;;;5068993;28;20104;-67
2022/04/24 05:46:59;;;;;;;36.97;11.98;;;23.20;23.20;;;;;;5066895;28;20081;-68
2022/04/24 05:49:25;;;;;;;54.78;24.58;;;23.10;23.10;;;;;;5084101;28;20069;-66
2022/04/24 05:51:52;;;;;;;53.40;27.48;;;23.10;23.60;;;;;;5067202;28;20085;-66
2022/04/24 05:54:18;;;;;;;50.47;21.95;;;23.10;23.50;;;;;;5083894;28;20080;-72
2022/04/24 05:56:45;;;;;;;38.53;11.85;;;23.10;23.50;;;;;;5068445;28;20067;-70
2022/04/24 05:59:11;;;;;;;39.25;11.35;;;23.00;23.70;;;;;;5070797;28;20082;-70
2022/04/24 06:01:37;;;;;;;45.85;10.27;;;23.00;23.40;;;;;;5070600;28;20083;-67
2022/04/24 06:04:04;;;;;;;46.92;11.07;;;23.00;23.50;;;;;;5070352;28;20140;-68
2022/04/24 06:06:32;;;;;;;82.18;12.75;;;23.00;23.30;;;;;;5070171;28;20100;-68
2022/04/24 06:08:58;;;;;;;49.38;10.80;;;22.90;23.50;;;;;;5086642;28;20067;-67
2022/04/24 06:11:25;;;;;;;29.08;8.00;;;22.80;23.30;;;;;;5073011;28;20409;-66
2022/04/24 06:13:51;;;;;;;24.42;6.68;;;22.80;23.00;;;;;;5069516;28;20091;-65
2022/04/24 06:16:18;;;;;;;18.75;4.43;;;22.80;22.80;;;;;;5086678;28;20076;-66
2022/04/24 06:18:44;;;;;;;27.05;4.25;;;22.70;22.70;;;;;;5080004;28;20074;-67
2022/04/24 06:21:10;;;;;;;46.80;4.60;;;22.80;22.60;;;;;;5072932;28;20129;-67
2022/04/24 06:23:37;;;;;;;27.30;3.20;;;22.70;22.30;;;;;;5071321;28;20467;-66
2022/04/24 06:26:03;;;;;;;16.52;2.78;;;22.70;22.40;;;;;;5069431;28;20173;-65
2022/04/24 06:28:30;;;;;;;18.80;2.78;;;22.70;22.40;;;;;;5086889;28;20071;-68
2022/04/24 06:30:56;;;;;;;14.85;2.50;;;22.70;22.40;;;;;;5069309;28;20110;-67
2022/04/24 06:33:23;;;;;;;14.13;2.70;;;22.60;22.60;;;;;;5087710;28;20083;-67
2022/04/24 06:35:49;;;;;;;10.32;2.55;;;22.60;22.60;;;;;;5070435;28;20611;-65
2022/04/24 06:38:16;;;;;;;16.35;3.22;;;22.50;22.50;;;;;;5086203;28;20143;-68
2022/04/24 06:40:43;;;;;;;15.25;2.90;;;22.50;22.70;;;;;;5071486;28;20087;-65
2022/04/24 06:43:09;;;;;;;15.75;3.05;;;22.50;22.90;;;;;;5071666;28;20153;-66
2022/04/24 06:45:41;;;;;;;15.90;3.22;;;22.40;23.10;;;;;;5069248;28;20078;-66
2022/04/24 06:48:12;;;;;;;13.32;3.13;;;22.30;23.20;;;;;;5087373;28;20068;-66
2022/04/24 06:50:43;;;;;;;18.35;3.20;;;22.30;23.20;;;;;;5085897;28;20078;-66
2022/04/24 06:53:12;;;;;;;11.05;2.55;;;22.20;23.60;;;;;;5070373;28;20065;-66
2022/04/24 06:55:40;;;;;;;8.70;2.60;;;22.20;23.80;;;;;;5068813;28;20074;-68
2022/04/24 06:58:09;;;;;;;14.32;3.20;;;22.20;24.10;;;;;;5070550;28;20082;-66
2022/04/24 07:00:38;;;;;;;13.07;2.85;;;22.10;24.20;;;;;;5070437;28;20075;-68
2022/04/24 07:03:16;;;;;;;7.50;2.55;;;22.10;24.80;;;;;;5070575;28;20070;-67
2022/04/24 07:05:42;;;;;;;11.02;2.38;;;22.10;25.10;;;;;;5070321;28;20143;-67
2022/04/24 07:08:09;;;;;;;12.70;2.17;;;22.10;25.20;;;;;;5071003;28;20115;-67
2022/04/24 07:10:36;;;;;;;10.82;2.53;;;22.00;25.50;;;;;;5069292;28;20480;-69
2022/04/24 07:13:03;;;;;;;15.30;1.98;;;22.00;25.60;;;;;;5086712;28;20644;-69
2022/04/24 07:15:31;;;;;;;8.13;1.77;;;22.00;25.80;;;;;;5068776;28;20078;-66
2022/04/24 07:17:58;;;;;;;9.90;1.88;;;22.00;25.80;;;;;;5070517;28;20087;-66
2022/04/24 07:20:29;;;;;;;8.68;1.50;;;22.00;25.90;;;;;;5068469;28;20091;-66
2022/04/24 07:23:05;;;;;;;8.52;1.50;;;22.00;26.20;;;;;;5070684;28;20067;-69
2022/04/24 07:25:41;;;;;;;4.63;1.63;;;21.90;26.50;;;;;;5070079;28;20079;-66
2022/04/24 07:28:22;;;;;;;12.55;1.40;;;21.90;26.90;;;;;;5086315;28;20112;-68
2022/04/24 07:30:48;;;;;;;11.02;2.28;;;21.80;27.40;;;;;;5086032;28;20431;-66
2022/04/24 07:33:15;;;;;;;4.60;1.30;;;21.80;27.70;;;;;;5065114;28;20070;-65
2022/04/24 07:35:42;;;;;;;8.98;1.38;;;21.70;28.10;;;;;;5050272;28;20112;-67
2022/04/24 07:38:09;;;;;;;6.60;1.15;;;21.70;28.30;;;;;;5070233;28;20078;-68
2022/04/24 07:40:37;;;;;;;6.10;0.95;;;21.70;28.70;;;;;;5067305;28;20100;-66
2022/04/24 07:43:09;;;;;;;6.28;1.33;;;21.60;28.70;;;;;;5086455;28;20163;-65
2022/04/24 07:45:44;;;;;;;10.38;1.25;;;21.50;29.00;;;;;;5085844;28;20114;-66
2022/04/24 07:48:12;;;;;;;7.35;1.30;;;21.40;29.20;;;;;;5069348;28;20066;-69
2022/04/24 07:50:50;;;;;;;7.30;1.25;;;21.30;29.30;;;;;;5082528;28;20529;-67
2022/04/24 07:53:18;;;;;;;9.23;1.35;;;21.30;29.60;;;;;;5072751;28;20524;-69
2022/04/24 07:55:46;;;;;;;8.15;1.15;;;21.20;29.70;;;;;;5084542;28;20418;-67
2022/04/24 07:58:13;;;;;;;8.68;1.02;;;21.20;29.80;;;;;;5068213;28;20577;-67
2022/04/24 08:00:40;;;;;;;10.25;1.13;;;21.10;30.00;;;;;;5092350;28;20130;-67
2022/04/24 08:03:08;;;;;;;10.80;1.20;;;21.10;30.10;;;;;;5069352;28;20576;-68
2022/04/24 08:05:41;;;;;;;8.77;1.40;;;21.00;30.00;;;;;;5067760;28;20113;-67
2022/04/24 08:08:10;;;;;;;5.45;0.90;;;21.00;30.20;;;;;;5067136;28;20079;-69
2022/04/24 08:10:40;;;;;;;9.20;1.58;;;20.90;30.50;;;;;;5068348;28;20096;-67
2022/04/24 08:13:07;;;;;;;11.95;1.63;;;20.80;30.50;;;;;;5069791;28;20174;-67
2022/04/24 08:15:35;;;;;;;8.73;1.60;;;20.70;30.40;;;;;;5068159;28;20068;-67
2022/04/24 08:18:03;;;;;;;10.90;2.13;;;20.70;30.60;;;;;;5074017;28;20075;-69
2022/04/24 08:20:30;;;;;;;10.45;1.73;;;20.70;30.60;;;;;;5071047;28;20084;-66
2022/04/24 08:22:59;;;;;;;17.52;1.45;;;20.50;30.80;;;;;;5085729;28;20076;-67
2022/04/24 08:25:27;;;;;;;10.38;2.03;;;20.50;31.20;;;;;;5068758;28;20419;-66
2022/04/24 08:27:55;;;;;;;11.25;1.52;;;20.50;31.20;;;;;;5068934;28;20116;-65
2022/04/24 08:30:26;;;;;;;14.82;2.40;;;20.40;31.20;;;;;;5083028;28;20082;-66
2022/04/24 08:32:52;;;;;;;16.05;2.40;;;20.30;31.30;;;;;;5069464;28;20114;-66
2022/04/24 08:35:20;;;;;;;17.65;3.53;;;20.20;31.30;;;;;;5084106;28;20181;-67
2022/04/24 08:37:48;;;;;;;10.98;3.50;;;20.20;31.40;;;;;;5066423;28;20075;-68
2022/04/24 08:40:16;;;;;;;16.05;3.60;;;20.20;31.40;;;;;;5067648;28;20091;-67
2022/04/24 08:42:43;;;;;;;21.48;3.72;;;20.10;31.20;;;;;;5068656;28;20078;-68
2022/04/24 08:45:12;;;;;;;16.58;2.83;;;20.10;31.10;;;;;;5066907;28;20068;-67
2022/04/24 08:47:39;;;;;;;10.10;3.47;;;20.10;30.80;;;;;;5084115;28;20084;-68
2022/04/24 08:50:06;;;;;;;15.80;3.92;;;20.00;30.60;;;;;;5084317;28;20079;-68
2022/04/24 08:52:32;;;;;;;21.63;6.20;;;20.00;30.50;;;;;;5083843;28;20079;-67
2022/04/24 08:54:59;;;;;;;20.50;4.88;;;19.90;30.60;;;;;;5068062;28;20433;-67
2022/04/24 08:57:26;;;;;;;15.27;3.25;;;19.90;30.30;;;;;;5084412;28;20082;-67
2022/04/24 08:59:54;;;;;;;11.02;3.42;;;19.80;30.00;;;;;;5082891;28;20084;-68
2022/04/24 09:02:21;;;;;;;9.15;3.00;;;19.80;29.80;;;;;;5066468;28;20443;-66
2022/04/24 09:04:48;;;;;;;15.63;2.55;;;19.70;29.80;;;;;;5067428;28;20072;-67
2022/04/24 09:07:17;;;;;;;7.60;1.85;;;19.70;29.10;;;;;;5066908;28;20099;-67
2022/04/24 09:09:53;;;;;;;14.35;1.80;;;19.60;28.80;;;;;;5073006;28;20526;-66
2022/04/24 09:12:24;;;;;;;9.65;2.17;;;19.60;28.80;;;;;;5067821;28;20082;-67
2022/04/24 09:14:56;;;;;;;11.20;1.95;;;19.60;28.70;;;;;;5086332;28;20096;-69
2022/04/24 09:17:28;;;;;;;13.23;2.42;;;19.60;28.80;;;;;;5084269;28;20171;-66
2022/04/24 09:19:56;;;;;;;13.27;3.53;;;19.50;28.60;;;;;;5068469;28;20166;-67
2022/04/24 09:22:24;;;;;;;11.35;3.33;;;19.50;29.00;;;;;;5068387;28;20072;-66
2022/04/24 09:24:54;;;;;;;8.45;2.10;;;19.50;29.00;;;;;;5066967;28;20441;-67
2022/04/24 09:27:25;;;;;;;11.07;2.30;;;19.50;29.30;;;;;;5065816;28;20079;-66
2022/04/24 09:30:00;;;;;;;15.45;2.40;;;19.50;29.50;;;;;;5066134;28;20079;-64
2022/04/24 09:32:29;;;;;;;7.82;1.60;;;19.50;29.80;;;;;;5070898;28;20098;-67
2022/04/24 09:34:56;;;;;;;11.20;2.20;;;19.50;29.90;;;;;;5071741;28;20103;-69
2022/04/24 09:37:23;;;;;;;14.05;1.95;;;19.50;29.90;;;;;;5085919;28;20483;-68
2022/04/24 09:39:52;;;;;;;12.50;2.97;;;19.50;30.10;;;;;;5068184;28;20099;-66
2022/04/24 09:42:20;;;;;;;9.55;3.10;;;19.40;30.30;;;;;;5073193;28;20076;-67
2022/04/24 09:44:52;;;;;;;9.02;2.67;;;19.50;30.50;;;;;;5071574;28;20097;-68
2022/04/24 09:47:24;;;;;;;9.02;2.50;;;19.40;30.70;;;;;;5088709;28;20072;-67
2022/04/24 09:49:52;;;;;;;19.45;3.05;;;18.90;38.70;;;;;;5070780;28;20090;-67
2022/04/24 09:52:24;;;;;;;19.88;2.80;;;19.30;31.60;;;;;;5070282;28;20100;-67
2022/04/24 09:54:55;;;;;;;8.77;1.95;;;19.30;32.10;;;;;;5087207;28;20123;-67
2022/04/24 09:57:24;;;;;;;13.70;2.10;;;19.40;32.40;;;;;;5069983;28;20077;-67
2022/04/24 09:59:53;;;;;;;15.30;1.85;;;19.40;32.50;;;;;;5092012;28;20133;-66
2022/04/24 10:02:20;;;;;;;12.23;1.73;;;19.40;32.60;;;;;;5071883;28;20067;-65
2022/04/24 10:04:48;;;;;;;16.50;2.47;;;19.30;32.60;;;;;;5087069;28;20072;-66
2022/04/24 10:07:16;;;;;;;16.00;4.18;;;19.40;32.70;;;;;;5070324;28;20128;-66
2022/04/24 10:09:45;;;;;;;12.13;3.63;;;19.40;32.60;;;;;;5073456;28;20526;-66
2022/04/24 10:12:20;;;;;;;9.18;2.40;;;19.30;32.50;;;;;;5087179;28;20457;-66
2022/04/24 10:14:58;;;;;;;18.25;2.50;;;19.20;32.30;;;;;;5086723;28;20098;-67
2022/04/24 10:17:53;;;;;;;10.02;1.85;;;19.30;31.90;;;;;;5086765;28;20083;-66
2022/04/24 10:20:55;;;;;;;12.23;1.33;;;19.30;31.50;;;;;;5086348;28;20186;-65
2022/04/24 10:23:29;;;;;;;13.27;1.98;;;19.30;31.30;;;;;;5047806;28;20091;-66
2022/04/24 10:25:55;;;;;;;10.77;1.85;;;19.30;30.80;;;;;;5037389;28;20105;-67
2022/04/24 10:28:22;;;;;;;5.35;1.77;;;19.30;30.60;;;;;;5086643;28;20110;-66
2022/04/24 10:30:58;;;;;;;9.32;1.50;;;19.20;30.10;;;;;;5070760;28;20181;-66
2022/04/24 10:33:28;;;;;;;7.97;1.70;;;19.20;29.90;;;;;;5069796;28;20087;-67
2022/04/24 10:36:00;;;;;;;10.13;1.73;;;19.20;29.90;;;;;;5086923;28;20185;-66
2022/04/24 10:38:29;;;;;;;11.95;3.20;;;19.20;29.70;;;;;;5069162;28;20070;-67
2022/04/24 10:41:14;;;;;;;8.52;1.88;;;19.20;29.70;;;;;;5084433;28;20618;-67
2022/04/24 10:43:48;;;;;;;12.10;1.83;;;19.20;29.60;;;;;;5070100;28;20167;-67
2022/04/24 10:46:26;;;;;;;7.10;1.73;;;19.20;29.60;;;;;;5086467;28;20521;-67
2022/04/24 10:48:53;;;;;;;5.97;1.45;;;19.20;29.50;;;;;;5068567;28;20079;-66
2022/04/24 10:51:28;;;;;;;11.18;1.48;;;19.20;29.60;;;;;;5071167;28;20072;-65
2022/04/24 10:54:07;;;;;;;7.95;1.48;;;19.20;29.50;;;;;;5086065;28;20110;-68
2022/04/24 10:56:34;;;;;;;6.00;1.20;;;19.10;29.50;;;;;;5086222;28;20075;-66
2022/04/24 10:59:12;;;;;;;5.35;1.58;;;19.10;29.60;;;;;;5070616;28;20086;-65
2022/04/24 11:01:43;;;;;;;6.03;1.65;;;19.10;29.40;;;;;;5068691;28;20136;-67
2022/04/24 11:04:12;;;;;;;7.63;1.30;;;19.10;29.60;;;;;;5071118;28;20530;-65
2022/04/24 11:06:38;;;;;;;8.10;1.00;;;19.10;29.50;;;;;;5085592;28;20171;-65
2022/04/24 11:09:10;;;;;;;7.63;1.38;;;19.00;29.50;;;;;;5085886;28;20151;-66
2022/04/24 11:11:59;;;;;;;6.70;1.45;;;19.00;29.40;;;;;;5068984;28;20076;-66
2022/04/24 11:14:27;;;;;;;7.80;1.55;;;19.00;29.60;;;;;;5069725;28;20170;-69
2022/04/24 11:16:58;;;;;;;8.63;1.20;;;19.00;29.40;;;;;;5069126;28;20079;-66
2022/04/24 11:19:35;;;;;;;5.20;1.02;;;19.00;29.30;;;;;;5085009;28;20138;-65
2022/04/24 11:22:13;;;;;;;6.35;1.65;;;19.00;29.40;;;;;;5070290;28;20076;-66
2022/04/24 11:24:41;;;;;;;2.45;1.00;;;19.00;29.40;;;;;;5068658;28;20072;-67
2022/04/24 11:27:12;;;;;;;6.25;1.25;;;18.90;29.20;;;;;;5070447;28;20654;-66
2022/04/24 11:29:43;;;;;;;8.95;1.30;;;19.00;29.50;;;;;;5069662;28;20076;-64
2022/04/24 11:32:13;;;;;;;7.20;1.25;;;19.00;29.40;;;;;;5068585;28;20076;-67
2022/04/24 11:34:39;;;;;;;6.43;1.23;;;18.90;29.10;;;;;;5068832;28;20107;-65
2022/04/24 11:37:08;;;;;;;10.15;1.70;;;18.90;29.60;;;;;;5069494;28;20064;-66
2022/04/24 11:39:35;;;;;;;5.90;1.20;;;18.90;29.10;;;;;;5068049;28;20974;-66
2022/04/24 11:42:01;;;;;;;7.35;1.17;;;18.90;29.00;;;;;;5072369;28;20099;-67
2022/04/24 11:50:16;;;;;;;9.88;1.30;;;18.90;28.80;;;;;;5070147;28;20102;-67
2022/04/24 11:52:47;;;;;;;7.45;1.17;;;18.80;28.70;;;;;;5068836;28;20175;-67
2022/04/24 11:55:20;;;;;;;2.30;0.95;;;18.80;28.50;;;;;;5069469;28;20075;-66
2022/04/24 11:58:02;;;;;;;7.30;1.05;;;18.80;28.50;;;;;;5068932;28;20092;-67
2022/04/24 12:00:38;;;;;;;7.88;1.23;;;18.80;28.60;;;;;;5068563;28;20127;-66
2022/04/24 12:03:06;;;;;;;9.55;1.30;;;18.80;28.50;;;;;;5071821;28;20067;-66
2022/04/24 12:05:33;;;;;;;3.40;1.20;;;18.80;28.50;;;;;;5067784;28;20492;-67
2022/04/24 12:08:01;;;;;;;3.78;1.30;;;18.80;28.50;;;;;;5085236;28;20429;-67
2022/04/24 12:10:27;;;;;;;3.75;1.00;;;18.70;28.40;;;;;;5085732;28;20075;-69
2022/04/24 12:12:55;;;;;;;5.93;1.10;;;18.80;28.50;;;;;;5069755;28;20140;-66
2022/04/24 12:15:23;;;;;;;13.50;1.83;;;18.70;28.50;;;;;;5067873;28;20076;-68
2022/04/24 12:17:51;;;;;;;3.50;1.25;;;18.70;28.40;;;;;;5067197;28;20072;-68
2022/04/24 12:20:19;;;;;;;4.38;1.13;;;18.70;28.40;;;;;;5069080;28;20091;-67
2022/04/24 12:22:46;;;;;;;7.90;1.20;;;18.70;28.40;;;;;;5070392;28;20155;-67
2022/04/24 12:25:18;;;;;;;7.88;1.40;;;18.70;28.30;;;;;;5069272;28;20087;-67
2022/04/24 12:27:57;;;;;;;5.45;1.35;;;18.70;28.50;;;;;;5068921;28;20088;-67
2022/04/24 12:30:33;;;;;;;5.95;1.45;;;18.70;28.40;;;;;;5067551;28;20110;-67
2022/04/24 12:33:07;;;;;;;7.65;1.42;;;18.70;28.50;;;;;;5068885;28;20091;-66
2022/04/24 12:35:34;;;;;;;5.63;1.30;;;18.70;28.70;;;;;;5084661;28;20115;-66
2022/04/24 12:38:12;;;;;;;3.90;1.00;;;18.70;28.70;;;;;;5067375;28;20179;-66
2022/04/24 12:40:38;;;;;;;10.00;1.42;;;18.60;28.80;;;;;;5066764;28;20137;-67
2022/04/24 12:43:05;;;;;;;11.38;1.30;;;18.60;29.40;;;;;;5067216;28;20084;-67
2022/04/24 12:45:35;;;;;;;5.55;0.93;;;18.60;29.00;;;;;;5066938;28;20068;-65
2022/04/24 12:48:01;;;;;;;5.55;1.25;;;18.60;29.20;;;;;;5084446;28;20099;-67
2022/04/24 12:50:28;;;;;;;4.95;1.05;;;18.50;29.30;;;;;;5084507;28;20079;-66
2022/04/24 12:52:54;;;;;;;3.83;1.05;;;18.50;29.50;;;;;;5067757;28;20080;-67